createdAt,value
2018-08-17T06:35:24.378Z,99.90
2018-08-17T06:37:52.881Z,99.90
2018-08-17T06:40:21.465Z,99.90
2018-08-17T06:42:49.971Z,99.90
2018-08-17T06:45:18.502Z,99.90
2018-08-17T06:47:46.969Z,99.90
2018-08-17T06:50:15.518Z,99.90
2018-08-17T06:52:43.991Z,99.90
2018-08-17T06:55:12.839Z,99.90
2018-08-17T06:57:41.536Z,99.90
2018-08-17T07:00:12.761Z,99.90
2018-08-17T07:02:41.805Z,99.90
2018-08-17T07:05:10.293Z,99.90
2018-08-17T07:07:38.925Z,99.90
2018-08-17T07:10:08.941Z,99.90
2018-08-17T07:12:37.423Z,99.90
2018-08-17T07:15:06.213Z,99.90
2018-08-17T07:17:34.930Z,99.90
2018-08-17T07:20:03.554Z,99.90
2018-08-17T07:22:32.078Z,99.90
2018-08-17T07:25:00.582Z,99.90
2018-08-17T07:27:29.094Z,99.90
2018-08-17T07:29:58.423Z,99.90
2018-08-17T07:32:26.931Z,99.90
2018-08-17T07:34:55.408Z,99.90
2018-08-17T07:37:23.890Z,99.90
2018-08-17T07:39:52.493Z,99.90
2018-08-17T07:42:21.004Z,99.90
2018-08-17T07:44:49.572Z,99.90
2018-08-17T07:47:18.051Z,99.90
2018-08-17T07:49:46.635Z,99.90
2018-08-17T07:52:15.115Z,99.90
2018-08-17T07:54:43.585Z,99.90
2018-08-17T07:57:12.078Z,99.90
2018-08-17T07:59:40.605Z,99.90
2018-08-17T08:02:09.194Z,99.90
2018-08-17T08:04:37.662Z,99.90
2018-08-17T08:07:06.134Z,99.90
2018-08-17T08:09:34.627Z,99.90
2018-08-17T08:12:03.082Z,99.90
2018-08-17T08:14:31.554Z,99.90
2018-08-17T08:17:00.066Z,99.90
2018-08-17T08:19:28.659Z,99.90
2018-08-17T08:21:57.142Z,99.90
2018-08-17T08:24:25.623Z,99.90
2018-08-17T08:26:54.089Z,99.90
2018-08-17T08:29:22.716Z,99.90
2018-08-17T08:31:51.162Z,99.90
2018-08-17T08:34:19.633Z,99.90
2018-08-17T08:36:48.187Z,99.90
2018-08-17T08:39:16.853Z,99.90
2018-08-17T08:41:45.355Z,99.90
2018-08-17T08:44:13.824Z,99.90
2018-08-17T08:46:42.650Z,99.90
2018-08-17T08:49:11.253Z,99.90
2018-08-17T08:51:39.711Z,99.90
2018-08-17T08:54:08.194Z,99.90
2018-08-17T08:56:36.682Z,99.90
2018-08-17T08:59:05.259Z,99.90
2018-08-17T09:04:02.010Z,99.90
2018-08-17T09:06:30.463Z,99.90
2018-08-17T09:08:58.979Z,99.90
2018-08-17T09:11:27.481Z,99.90
2018-08-17T09:13:55.983Z,99.90
2018-08-17T09:16:24.482Z,99.90
2018-08-17T09:18:53.025Z,99.90
2018-08-17T09:21:21.511Z,99.90
2018-08-17T09:23:49.972Z,99.90
2018-08-17T09:26:18.447Z,99.90
2018-08-17T09:28:47.541Z,99.90
2018-08-17T09:31:16.097Z,99.90
2018-08-17T09:33:44.563Z,99.90
2018-08-17T09:36:13.049Z,99.90
2018-08-17T09:38:41.517Z,99.90
2018-08-17T09:41:10.008Z,99.90
2018-08-17T09:43:38.485Z,99.90
2018-08-17T09:46:07.037Z,99.90
2018-08-17T09:48:35.517Z,99.90
2018-08-17T09:51:04.055Z,99.90
2018-08-17T09:53:32.647Z,99.90
2018-08-17T09:56:01.203Z,99.90
2018-08-17T09:58:29.657Z,99.90
2018-08-17T10:01:03.278Z,99.90
2018-08-17T10:03:37.283Z,99.90
2018-08-17T10:06:11.006Z,99.90
2018-08-17T10:08:44.898Z,99.90
2018-08-17T10:11:13.397Z,99.90
2018-08-17T10:13:41.869Z,99.90
2018-08-17T10:16:10.353Z,99.90
2018-08-17T10:18:44.663Z,99.90
2018-08-17T10:21:14.681Z,99.90
2018-08-17T10:23:42.917Z,99.90
2018-08-17T10:26:11.400Z,99.90
2018-08-17T10:28:39.905Z,99.90
2018-08-17T10:31:08.385Z,99.90
2018-08-17T10:33:36.848Z,99.90
2018-08-17T10:36:05.321Z,99.90
2018-08-17T10:38:33.817Z,99.90
2018-08-17T10:41:02.322Z,99.90
2018-08-17T10:43:30.801Z,99.90
2018-08-17T10:46:04.606Z,99.90
2018-08-17T10:48:33.080Z,99.90
2018-08-17T10:51:01.566Z,99.90
2018-08-17T10:53:36.137Z,99.90
2018-08-17T10:56:04.812Z,99.90
2018-08-17T10:58:34.139Z,99.90
2018-08-17T11:01:02.642Z,99.60
2018-08-17T11:03:31.121Z,98.90
2018-08-17T11:05:59.592Z,98.10
2018-08-17T11:08:28.087Z,97.90
2018-08-17T11:10:56.627Z,98.20
2018-08-17T11:13:25.068Z,97.80
2018-08-17T11:15:53.584Z,98.10
2018-08-17T11:18:22.178Z,99.00
2018-08-17T11:20:50.786Z,99.90
2018-08-17T11:23:19.250Z,99.90
2018-08-17T11:25:47.736Z,99.90
2018-08-17T11:28:16.206Z,99.90
2018-08-17T11:30:44.755Z,99.90
2018-08-17T11:33:13.397Z,99.90
2018-08-17T11:35:41.939Z,99.90
2018-08-17T11:38:17.238Z,99.90
2018-08-17T11:40:45.862Z,99.90
2018-08-17T11:43:14.331Z,99.80
2018-08-17T11:45:44.776Z,99.90
2018-08-17T11:48:21.792Z,99.90
2018-08-17T11:50:50.493Z,99.90
2018-08-17T11:53:18.974Z,99.50
2018-08-17T11:55:47.456Z,99.00
2018-08-17T11:58:15.935Z,98.60
2018-08-17T12:00:44.564Z,98.10
2018-08-17T12:03:13.146Z,97.60
2018-08-17T12:05:41.623Z,97.50
2018-08-17T12:08:10.221Z,97.30
2018-08-17T12:10:38.643Z,97.70
2018-08-17T12:13:12.544Z,97.80
2018-08-17T12:15:46.338Z,97.70
2018-08-17T12:18:14.801Z,98.10
2018-08-17T12:20:43.388Z,99.20
2018-08-17T12:23:11.864Z,99.20
2018-08-17T12:25:59.938Z,99.70
2018-08-17T12:28:29.932Z,99.90
2018-08-17T12:30:59.474Z,99.60
2018-08-17T12:33:28.131Z,99.00
2018-08-17T12:35:56.661Z,99.00
2018-08-17T12:38:25.182Z,99.00
2018-08-17T12:40:54.855Z,98.70
2018-08-17T12:43:31.476Z,98.20
2018-08-17T12:45:59.961Z,97.80
2018-08-17T12:48:28.524Z,97.60
2018-08-17T12:51:02.326Z,97.20
2018-08-17T12:53:30.911Z,96.70
2018-08-17T12:55:59.537Z,96.10
2018-08-17T12:58:28.063Z,95.10
2018-08-17T13:00:56.597Z,93.60
2018-08-17T13:03:25.150Z,91.80
2018-08-17T13:08:21.810Z,88.30
2018-08-17T13:10:50.576Z,87.50
2018-08-17T13:13:19.055Z,86.70
2018-08-17T13:15:53.616Z,87.00
2018-08-17T13:18:23.076Z,86.90
2018-08-17T13:20:51.640Z,84.10
2018-08-17T13:23:20.481Z,83.50
2018-08-17T13:25:49.172Z,83.20
2018-08-17T13:28:17.668Z,82.20
2018-08-17T13:30:46.337Z,81.80
2018-08-17T13:35:43.088Z,77.10
2018-08-17T13:38:11.686Z,76.30
2018-08-17T13:40:40.267Z,73.50
2018-08-17T13:43:08.809Z,71.90
2018-08-17T13:45:37.348Z,68.60
2018-08-17T13:48:06.198Z,69.00
2018-08-17T13:50:34.879Z,68.00
2018-08-17T13:53:03.383Z,66.50
2018-08-17T13:55:31.922Z,69.00
2018-08-17T13:58:00.528Z,68.30
2018-08-17T14:00:29.095Z,66.00
2018-08-17T14:02:57.652Z,61.20
2018-08-17T14:05:26.258Z,57.90
2018-08-17T14:07:54.765Z,46.90
2018-08-17T14:15:19.686Z,25.10
2018-08-17T14:17:48.314Z,23.60
2018-08-17T14:20:16.935Z,21.40
2018-08-17T14:22:45.522Z,19.60
2018-08-17T14:25:14.052Z,19.90
2018-08-17T14:27:42.642Z,20.90
2018-08-17T14:30:16.808Z,22.20
2018-08-17T14:32:45.493Z,24.10
2018-08-17T14:35:14.519Z,26.20
2018-08-17T14:37:43.026Z,24.60
2018-08-17T14:40:11.688Z,22.30
2018-08-17T14:42:40.585Z,20.30
2018-08-17T14:45:09.969Z,21.00
2018-08-17T14:47:38.769Z,21.10
2018-08-17T14:50:09.503Z,20.00
2018-08-17T14:52:38.270Z,18.90
2018-08-17T14:55:07.072Z,17.80
2018-08-17T14:57:35.570Z,17.20
2018-08-17T15:00:04.834Z,18.00
2018-08-17T15:02:33.309Z,17.30
2018-08-17T15:05:01.829Z,17.00
2018-08-17T15:07:30.374Z,16.30
2018-08-17T15:09:58.895Z,16.50
2018-08-17T15:12:27.416Z,16.20
2018-08-17T15:14:56.036Z,16.00
2018-08-17T15:17:26.195Z,16.90
2018-08-17T15:19:54.767Z,19.00
2018-08-17T15:22:23.270Z,21.30
2018-08-17T15:24:51.776Z,23.90
2018-08-17T15:27:20.337Z,25.40
2018-08-17T15:29:49.062Z,27.00
2018-08-17T15:32:17.939Z,28.30
2018-08-17T15:34:46.436Z,29.10
2018-08-17T15:37:14.982Z,26.90
2018-08-17T15:39:43.566Z,27.00
2018-08-17T15:42:12.081Z,24.60
2018-08-17T15:44:40.623Z,22.70
2018-08-17T15:47:09.777Z,20.30
2018-08-17T15:49:38.358Z,18.80
2018-08-17T15:52:07.446Z,18.20
2018-08-17T15:54:36.007Z,18.80
2018-08-17T15:57:04.493Z,18.50
2018-08-17T15:59:33.823Z,18.00
2018-08-17T16:02:02.466Z,17.20
2018-08-17T16:04:30.987Z,16.80
2018-08-17T16:06:59.474Z,16.80
2018-08-17T16:09:28.036Z,17.10
2018-08-17T16:11:56.511Z,18.40
2018-08-17T16:14:25.070Z,18.10
2018-08-17T16:16:53.576Z,19.10
2018-08-17T16:19:22.219Z,21.40
2018-08-17T16:21:50.730Z,23.30
2018-08-17T16:24:19.804Z,25.00
2018-08-17T16:26:48.369Z,26.20
2018-08-17T16:29:18.873Z,25.40
2018-08-17T16:31:47.397Z,24.80
2018-08-17T16:34:16.274Z,24.90
2018-08-17T16:36:44.810Z,24.80
2018-08-17T16:39:15.435Z,24.30
2018-08-17T16:41:44.052Z,25.80
2018-08-17T16:44:13.269Z,27.50
2018-08-17T16:46:42.752Z,29.60
2018-08-17T16:49:11.342Z,32.50
2018-08-17T16:51:40.072Z,33.60
2018-08-17T16:54:08.954Z,33.90
2018-08-17T16:56:37.649Z,33.70
2018-08-17T16:59:06.560Z,34.70
2018-08-17T17:01:34.976Z,36.20
2018-08-17T17:04:03.577Z,36.70
2018-08-17T17:06:32.187Z,37.30
2018-08-17T17:09:04.659Z,38.80
2018-08-17T17:11:33.706Z,38.60
2018-08-17T17:16:46.485Z,38.70
2018-08-17T17:19:18.742Z,40.40
2018-08-17T17:24:16.847Z,41.80
2018-08-17T17:26:45.354Z,43.20
2018-08-17T17:29:13.939Z,43.70
2018-08-17T17:31:42.998Z,44.50
2018-08-17T17:34:11.759Z,45.40
2018-08-17T17:36:40.237Z,45.80
2018-08-17T17:39:11.510Z,46.60
2018-08-17T17:41:39.987Z,47.60
2018-08-17T17:44:08.470Z,48.00
2018-08-17T17:46:37.411Z,48.50
2018-08-17T17:49:05.935Z,48.80
2018-08-17T17:51:34.469Z,49.70
2018-08-17T17:54:02.958Z,50.10
2018-08-17T17:56:31.512Z,50.50
2018-08-17T17:59:05.452Z,50.90
2018-08-17T18:01:34.043Z,51.40
2018-08-17T18:04:02.533Z,52.10
2018-08-17T18:06:31.024Z,52.30
2018-08-17T18:09:01.811Z,53.00
2018-08-17T18:11:30.301Z,53.30
2018-08-17T18:13:59.097Z,54.00
2018-08-17T18:16:28.542Z,54.60
2018-08-17T18:18:57.627Z,55.10
2018-08-17T18:21:32.659Z,55.40
2018-08-17T18:26:53.885Z,57.10
2018-08-17T18:29:22.511Z,58.10
2018-08-17T18:31:50.994Z,58.70
2018-08-17T18:34:19.562Z,59.00
2018-08-17T18:36:48.145Z,59.70
2018-08-17T18:39:16.758Z,61.20
2018-08-17T18:41:45.243Z,63.20
2018-08-17T18:44:13.796Z,64.70
2018-08-17T18:46:42.486Z,65.70
2018-08-17T18:49:10.928Z,67.30
2018-08-17T18:51:39.411Z,68.70
2018-08-17T18:54:07.913Z,69.90
2018-08-17T18:56:36.402Z,71.10
2018-08-17T18:59:05.009Z,72.40
2018-08-17T19:01:33.516Z,73.70
2018-08-17T19:04:02.015Z,75.10
2018-08-17T19:06:30.570Z,76.30
2018-08-17T19:08:59.049Z,77.50
2018-08-17T19:11:27.550Z,78.90
2018-08-17T19:13:56.056Z,80.50
2018-08-17T19:16:24.582Z,82.20
2018-08-17T19:18:53.323Z,84.00
2018-08-17T19:21:21.861Z,85.60
2018-08-17T19:23:50.333Z,87.20
2018-08-17T19:26:18.919Z,88.70
2018-08-17T19:28:51.696Z,90.00
2018-08-17T19:31:20.210Z,90.60
2018-08-17T19:33:48.780Z,91.10
2018-08-17T19:36:17.273Z,91.80
2018-08-17T19:38:45.759Z,92.20
2018-08-17T19:41:14.241Z,92.90
2018-08-17T19:43:42.776Z,93.80
2018-08-17T19:46:11.409Z,94.50
2018-08-17T19:48:39.782Z,94.90
2018-08-17T19:51:13.755Z,95.30
2018-08-17T19:53:42.251Z,95.60
2018-08-17T19:56:10.750Z,96.00
2018-08-17T19:58:39.244Z,96.40
2018-08-17T20:01:07.719Z,96.80
2018-08-17T20:03:36.422Z,97.10
2018-08-17T20:06:04.909Z,97.60
2018-08-17T20:08:33.412Z,98.10
2018-08-17T20:11:01.904Z,98.50
2018-08-17T20:13:31.131Z,99.20
2018-08-17T20:16:00.079Z,99.80
2018-08-17T20:18:28.895Z,99.90
2018-08-17T20:20:57.476Z,99.90
2018-08-17T20:23:25.964Z,99.90
2018-08-17T20:25:54.629Z,99.90
2018-08-17T20:28:23.026Z,99.90
2018-08-17T20:30:51.525Z,99.90
2018-08-17T20:33:25.077Z,99.90
2018-08-17T20:35:53.763Z,99.90
2018-08-17T20:38:22.359Z,99.90
2018-08-17T20:40:52.892Z,99.90
2018-08-17T20:43:21.496Z,99.90
2018-08-17T20:45:50.028Z,99.90
2018-08-17T20:48:18.513Z,99.90
2018-08-17T20:50:48.103Z,99.90
2018-08-17T20:53:19.330Z,99.90
2018-08-17T20:55:48.099Z,99.90
2018-08-17T20:58:16.956Z,99.90
2018-08-17T21:00:45.475Z,99.90
2018-08-17T21:03:13.980Z,99.90
2018-08-17T21:05:42.516Z,99.90
2018-08-17T21:08:11.057Z,99.90
2018-08-17T21:10:39.741Z,99.90
2018-08-17T21:13:08.239Z,99.90
2018-08-17T21:15:36.982Z,99.90
2018-08-17T21:18:05.657Z,99.90
2018-08-17T21:20:34.275Z,99.90
2018-08-17T21:23:02.749Z,99.90
2018-08-17T21:25:31.264Z,99.90
2018-08-17T21:27:59.766Z,99.90
2018-08-17T21:30:28.369Z,99.90
2018-08-17T21:32:56.885Z,99.90
